Aérodrome :
LOGIN :

S'inscrire | Disclaimer

   EN    FR    IT 

 










Légende :    VFR   VFR Marginal   IFR   IFR Intensif   IFR Très Intensif
Visi : 
Plafond : 
>= 8 km
>= 3000ft
5 à 8 km
1000 à 3000 ft
1500m à 5 km
500 à 1000 ft
800 à 1500m
200 à 500 ft
< 800m
< 200 ft
Symboles :   Orages  Brouillard  Fortes neiges  Fortes précipitations  Vent > 20 kt
SIGMETs :   Divers  Orages  Givrage  Turbulence  Onde Orograph.  Cendres Volcan.







- Altitude de l'aérodrome : 386 ft
- Code IATA : QOE


ETNN - Nörvenich Airforce Base

DERNIER METAR :
  • 181720Z 30006KT 9999 BKN032 05/02 Q1002 BLU BLU TEMPO WHT

METARs EXPIRÉS :
  • 181620Z 29011KT 9999 FEW045 BKN065 05/01 Q1002 BLU BLU TEMPO WHT
  • 181520Z 30012KT 9999 VCSH FEW030 FEW035TCU BKN050 06/01 Q1001 BLU BLU TEMPO WHT
  • 181441Z 28021KT 9999 FEW035 BKN050 06/M00 Q1001 BLU BLU TEMPO WHT

TAF TAF ETNN
Valide du 18 à 18h jusqu'au 19 à 03h UTC


181700Z 1818/1903 25012KT 9999 NSW BKN030
TEMPO 1818/1903 27015G25KT 5000 SHRAGS BKN015TCU
PROB30 1818/1821 29025G33KT 4000 SHRAGS BKN010CB BY ETGL
Pas de NOTAMs connus pour ce terrain.



MET'MAP, la Météo Aéronautique d'un coup d'oeil ! - Copyright ORBIFLY Décembre 2007 - Disclaimer

ORBIFLY MET'MAP TEAM :

Programmation & Développement : Alexandra Zaïnal
Conception & Développement : Baudouin d'Aumeries
Co-Programmation & Développement : Marc-Olivier Méhu
Soutien technique & logistique : Manuel Goepfert

Contact : metmap@orbifly.com




SOURCES & CREDITS :

   NOAA